Aviation Digital Data Service (ADDS)

Output produced by METARs form (1252 UTC 10 July 2020)
found at http://www.aviationweather.gov/metar/data/
 
KMEI 101158Z 18005KT 8SM CLR 24/23 A3001 RMK AO2 LTG DSNT S SLP156 60001 70075 T02440228 10244 20233 51014
KMEI 101058Z 18004KT 9SM BKN037 BKN047 24/23 A2998 RMK AO2 LTG DSNT NE AND S AND SW RAB06E21 SLP150 P0001 T02390228
KMEI 101028Z AUTO 17003KT 10SM VCTS FEW032 24/23 A2998 RMK AO2 LTG DSNT NE AND S AND SW RAB06E21 P0001 T02390228
KMEI 100958Z AUTO 19004KT 10SM SCT033 SCT042 BKN049 24/23 A2996 RMK AO2 LTG DSNT S-W SLP143 T02390228
KMEI 100858Z AUTO 00000KT 8SM FEW041 23/22 A2996 RMK AO2 LTG DSNT SW SLP140 T02330222 58004
KMEI 100758Z AUTO 00000KT 6SM R01/2000VP6000FT BR SCT003 23/22 A2996 RMK AO2 SLP141 T02330222
KMEI 100750Z AUTO 00000KT 3SM R01/3500VP6000FT BR BKN003 23/22 A2996 RMK AO2 T02330222
KMEI 100733Z AUTO 00000KT 1 3/4SM R01/4500VP6000FT BR OVC002 23/22 A2996 RMK AO2 T02330222
KMEI 100712Z AUTO 00000KT 3SM R01/2800V3500FT BR OVC002 24/23 A2997 RMK AO2 T02390228
KMEI 100705Z AUTO 00000KT 1 1/2SM R01/3500V5000FT BR OVC002 24/23 A2997 RMK AO2 T02390228
KMEI 100658Z AUTO 00000KT 3/4SM R01/3500V5000FT BR VV002 24/23 A2997 RMK AO2 SLP143 T02390228
KMEI 100653Z AUTO 00000KT 3/4SM R01/4000V5000FT BR VV002 24/23 A2997 RMK AO2
KMEI 100639Z AUTO 00000KT 1 1/4SM R01/2800V4000FT BR OVC002 24/23 A2997 RMK AO2 T02390228
KMEI 100628Z AUTO 00000KT 3/4SM R01/2200V2800FT BR VV002 24/23 A2996 RMK AO2 T02390228
KMEI 100619Z AUTO 00000KT 1 1/4SM R01/2200V2400FT BR OVC002 24/23 A2996 RMK AO2 T02390228
KMEI 100611Z AUTO 00000KT 2SM R01/2200V2600FT BR OVC002 24/23 A2996 RMK AO2 T02390228
KMEI 100558Z AUTO 20003KT 1 1/4SM R01/2400V4000FT BR OVC002 24/23 A2996 RMK AO2 SLP140 T02390228 10272 20239 403330233 51009
KMEI 100548Z AUTO 18003KT 1/2SM R01/1600V2400FT FG VV002 24/23 A2996 RMK AO2 T02390228
KMEI 100528Z AUTO 00000KT 1/4SM R01/1400V1800FT FG VV002 24/23 A2996 RMK AO2 T02390228
KMEI 100518Z AUTO 22003KT 3/4SM R01/1000V2200FT BR VV002 24/23 A2996 RMK AO2 T02390228
KMEI 100509Z AUTO 21003KT 2SM R01/0800V1200FT BR OVC002 24/23 A2996 RMK AO2 T02390233
KMEI 100458Z AUTO 00000KT 1/2SM R01/1000V1600FT FG VV002 24/23 A2995 RMK AO2 SLP139 T02390233
KMEI 100444Z AUTO 00000KT 3/4SM R01/1600V2000FT BR VV002 24/23 A2995 RMK AO2 T02390233
KMEI 100441Z AUTO 00000KT 1 1/4SM R01/1600V2000FT BR OVC001 24/23 A2995 RMK AO2 T02440233
KMEI 100425Z AUTO 00000KT 8SM R01/5000VP6000FT BKN001 24/23 A2995 RMK AO2 T02440233
KMEI 100358Z AUTO 00000KT 9SM FEW002 24/23 A2995 RMK AO2 SLP136 T02440233
KMEI 100344Z AUTO 00000KT 8SM FEW003 24/23 A2994 RMK AO2 T02440233
KMEI 100258Z 00000KT 10SM CLR 25/24 A2993 RMK AO2 SLP131 T02500239 53000
KMEI 100158Z 19004KT 10SM CLR 25/24 A2991 RMK AO2 SLP123 T02500239
KMEI 100058Z 00000KT 10SM CLR 26/24 A2993 RMK AO2 SLP130 T02610239
KMEI 092358Z 00000KT 10SM CLR 27/23 A2993 RMK AO2 SLP130 60074 T02720233 10333 20250 58005
KMEI 092258Z 00000KT 10SM CLR 26/24 A2993 RMK AO2 SLP132 T02610239
KMEI 092158Z 15004KT 10SM FEW044 SCT090 BKN110 25/23 A2994 RMK AO2 LTG DSNT SE-SW RAE51 TSE03E31B32E51 SLP136 P0028 T02500228
KMEI 092145Z 18008KT 6SM -TSRA BR SCT041 SCT060 BKN075 25/23 A2994 RMK AO2 LTG DSNT SE-W TSE03E31B32 P0028 T02500228
KMEI 092109Z 16004KT 2SM R01/2200VP6000FT TSRA BR SCT032 SCT055 BKN080 25/23 A2994 RMK AO2 LTG DSNT ALQDS TSE03 P0015 T02500228
KMEI 092058Z 22006KT 6SM R01/2400VP6000FT -TSRA FEW042 SCT075 BKN090 26/23 A2997 RMK AO2 LTG DSNT SE AND W RAB01 PRESRR SLP144 P0046 60046 T02610233 53002
KMEI 092041Z 05005KT 1SM R01/P6000FT -TSRA SCT018 SCT032 BKN070 26/23 A2993 RMK AO2 LTG DSNT N AND SE AND NW RAB01 P0046 T02610228
KMEI 092027Z 08012G18KT 1SM R01/1800VP6000FT +TSRA BR SCT018 BKN027 OVC033 25/23 A2994 RMK AO2 LTG DSNT ALQDS RAB01 P0026 T02500228
KMEI 092020Z VRB05G17KT 1SM R01/1800VP6000FT +TSRA FEW020 BKN033 OVC039 26/23 A2996 RMK AO2 LTG DSNT ALQDS RAB01 PRESRR P0007 T02560228
KMEI 091958Z 06010KT 10SM TS FEW024 SCT031 BKN038 31/24 A2992 RMK AO2 LTG DSNT S AND NW RAE06 TSB22E49B50 SLP128 P0000 T03060244
KMEI 091928Z 26003KT 10SM TS FEW043 FEW055 SCT070 32/25 A2994 RMK AO2 LTG DSNT S RAE06 TSB22 P0000 T03170250
KMEI 091919Z 00000KT 10SM R01/6000VP6000FT VCTS FEW028 SCT037 BKN048 32/26 A2994 RMK AO2 RAE06 P0000 T03220256
KMEI 091858Z 00000KT 10SM -RA SCT029 BKN047 BKN055 32/26 A2994 RMK AO2 RAB47 SLP134 P0000 T03170256
KMEI 091809Z 00000KT 10SM SCT021 SCT034 BKN065 31/26 A2995 RMK AO2 T03110256
KMEI 091758Z 19005KT 10SM SCT021 BKN028 BKN039 31/25 A2996 RMK AO2 SLP141 60000 T03060250 10317 20244 58003
KMEI 091746Z 20004KT 10SM BKN021 BKN026 30/25 A2996 RMK AO2 T03000250
KMEI 091658Z 17006KT 10SM CLR 29/25 A2998 RMK AO2 SLP147 T02890250
KMEI 091615Z 00000KT 10SM SCT016 SCT047 BKN085 27/23 A2998 RMK AO2 T02670233
KMEI 091602Z 04005KT 10SM BKN013 BKN045 OVC050 27/24 A2999 RMK AO2 T02670239
KMEI 091558Z 04003KT 10SM FEW010 BKN015 OVC047 26/24 A2999 RMK AO2 LTG DSNT E RAB35E56 SLP151 P0000 T02610239
KMEI 091551Z 04006KT 6SM -RA BR SCT010 OVC015 26/24 A2999 RMK AO2 LTG DSNT E RAB35 P0000 T02610239
KMEI 091458Z 00000KT 9SM OVC011 27/24 A2997 RMK AO2 LTG DSNT N AND NE SLP145 T02720239 51004
KMEI 091358Z 24003KT 9SM OVC011 27/23 A2997 RMK AO2 LTG DSNT NW SLP143 T02670233
KMEI 091312Z 00000KT 9SM OVC011 26/23 A2997 RMK AO2 T02560228
KMEI 091258Z 00000KT 9SM OVC009 26/23 A2997 RMK AO2 CIG 006V013 SLP144 T02560233
KMEI 091158Z 00000KT 9SM OVC006 24/23 A2996 RMK AO2 CIG 006V009 SLP140 60000 70011 T02440228 10244 20233 53010
KMEI 091058Z 19003KT 10SM OVC006 24/22 A2995 RMK AO2 SLP136 T02390222
KMEI 090958Z AUTO 21005KT 10SM OVC009 24/22 A2993 RMK AO2 CIG 007V012 SLP132 T02390222
KMEI 090858Z AUTO 00000KT 10SM BKN008 BKN028 OVC050 23/22 A2993 RMK AO2 SLP129 60000 T02330217 55003
KMEI 090839Z AUTO 24003KT 10SM FEW004 BKN025 OVC095 23/22 A2992 RMK AO2 T02330217
KMEI 090825Z AUTO 19005KT 10SM BKN004 BKN021 23/22 A2992 RMK AO2 T02330217
KMEI 090758Z AUTO 18004KT 10SM BKN006 23/22 A2992 RMK AO2 RAB39E48 SLP126 P0000 T02330217
KMEI 090658Z AUTO 20006KT 10SM BKN005 OVC032 23/22 A2993 RMK AO2 SLP131 T02330217
KMEI 090618Z AUTO 20006KT 10SM OVC005 23/22 A2994 RMK AO2 T02330217
KMEI 090558Z AUTO 20005KT 10SM BKN004 BKN050 OVC065 23/22 A2994 RMK AO2 SLP133 T02330222 10256 20233 403060233 58005
KMEI 090458Z AUTO 17003KT 10SM SCT005 BKN065 OVC085 23/22 A2995 RMK AO2 SLP137 T02330222
KMEI 090358Z AUTO 18004KT 10SM OVC005 24/22 A2995 RMK AO2 SLP139 T02390222
KMEI 090342Z AUTO 17004KT 10SM BKN006 BKN075 OVC110 24/22 A2995 RMK AO2 T02390222
KMEI 090327Z AUTO 18005KT 10SM SCT006 SCT075 OVC100 24/22 A2995 RMK AO2 T02390222
KMEI 090258Z 17003KT 10SM BKN100 24/22 A2995 RMK AO2 SLP139 T02390222 52009
KMEI 090158Z 18005KT 10SM CLR 24/22 A2995 RMK AO2 SLP137 T02390222
KMEI 090058Z 19006KT 10SM SCT013 24/22 A2993 RMK AO2 SLP131 T02440222
KMEI 082358Z COR 16006KT 10SM SCT013 26/22 A2993 RMK AO2 SLP129 60011 T02560222 10300 20239 58016
KMEI 082340Z 17007KT 10SM FEW012 SCT032 26/22 A2993 RMK AO2 T02560222
KMEI 082305Z 17007KT 10SM OVC012 26/23 A2995 RMK AO2 T02610228
KMEI 082258Z 17006KT 10SM BKN006 BKN015 26/23 A2995 RMK AO2 SLP138 T02610228
KMEI 082243Z 17007KT 10SM BKN013 27/23 A2996 RMK AO2 T02670228
KMEI 082216Z 19007KT 10SM SCT009 SCT015 26/23 A2996 RMK AO2 T02610233
KMEI 082206Z 19008KT 10SM SCT009 BKN016 26/23 A2996 RMK AO2 T02610233
KMEI 082158Z 19007KT 10SM SCT009 26/23 A2996 RMK AO2 SLP142 T02610233
KMEI 082058Z 18004KT 10SM FEW007 SCT110 26/23 A2997 RMK AO2 RAE01 SLP145 P0000 60011 T02560228 51001
KMEI 082014Z 19004KT 10SM FEW005 25/23 A2998 RMK AO2 LTG DSNT E RAE01 P0000 T02500228
KMEI 081958Z 15004KT 10SM -RA FEW110 24/22 A2997 RMK AO2 LTG DSNT SE RAB28 SLP145 P0003 T02440222
KMEI 081915Z 31003KT 10SM FEW090 SCT120 25/22 A2998 RMK AO2 LTG DSNT E AND SE T02500217
KMEI 081858Z 33004KT 10SM VCTS FEW080 BKN110 25/21 A2999 RMK AO2 LTG DSNT ALQDS RAB14E36 TSB27E42 SLP150 P0008 T02500211
KMEI 081848Z VRB04KT 10SM VCTS FEW027 SCT075 BKN100 24/22 A2999 RMK AO2 LTG DSNT ALQDS RAB14E36 TSB27E42 P0008 T02440217
KMEI 081833Z 03004KT 8SM -TSRA FEW019 BKN050 OVC100 24/22 A3000 RMK AO2 LTG DSNT ALQDS RAB14 TSB27 P0008 T02440222
KMEI 081820Z 33007G20KT 2 1/2SM R01/4000VP6000FT VCTS -RA SCT019 BKN037 OVC047 25/22 A3000 RMK AO2 LTG DSNT ALQDS RAB14 P0000 T02500217
KMEI 081814Z 32014G23KT 10SM VCTS -RA BKN019 BKN035 OVC047 26/21 A3000 RMK AO2 LTG DSNT ALQDS RAB14 PRESRR P0000 T02610211
KMEI 081758Z 20006KT 10SM BKN019 BKN024 OVC033 30/24 A2997 RMK AO2 LTG DSNT ALQDS RAE00 SLP144 P0000 60000 T03000244 10306 20239 58020
KMEI 081746Z 24004KT 10SM BKN017 BKN022 31/25 A2997 RMK AO2 LTG DSNT SW-N RAE00 P0000 T03060250
KMEI 081719Z 21005KT 10SM SCT016 28/24 A2999 RMK AO2 LTG DSNT NW RAE00 P0000 T02830244
KMEI 081706Z 20004KT 10SM SCT014 BKN019 28/24 A3000 RMK AO2 RAE00 P0000 T02830239
KMEI 081658Z 23006KT 10SM -RA BKN013 OVC019 28/24 A3000 RMK AO2 RAB18E32B50 SLP155 P0000 T02830239
KMEI 081612Z 18006KT 10SM SCT011 BKN014 BKN029 28/24 A3002 RMK AO2 T02830244
KMEI 081558Z 19006KT 10SM OVC009 27/24 A3002 RMK AO2 SLP161 T02720244
KMEI 081458Z 24003KT 10SM OVC009 27/23 A3003 RMK AO2 SLP164 T02670233 51006
KMEI 081358Z 00000KT 10SM FEW006 SCT095 26/23 A3002 RMK AO2 SLP160 T02560228
KMEI 081350Z 00000KT 10SM SCT006 25/23 A3002 RMK AO2 T02500228
KMEI 081338Z 00000KT 10SM BKN005 25/23 A3001 RMK AO2 T02500228
KMEI 081258Z 00000KT 10SM OVC004 24/23 A3001 RMK AO2 SLP158 T02440228
KMEI 081158Z 00000KT 10SM OVC003 24/23 A3001 RMK AO2 RAB01E12 SLP159 P0000 60000 T02390228 10239 20233 53008
KMEI 081058Z 20006KT 10SM OVC003 24/22 A3000 RMK AO2 SLP156 T02390222
KMEI 080958Z AUTO 19003KT 10SM BKN003 24/22 A2999 RMK AO2 SLP152 T02390222
KMEI 080858Z AUTO 16003KT 10SM SCT003 BKN120 24/22 A2999 RMK AO2 SLP150 T02390222 55004
KMEI 080810Z AUTO 20003KT 10SM SCT002 BKN120 24/22 A2998 RMK AO2 T02390222
KMEI 080758Z AUTO 21003KT 10SM BKN002 24/22 A2998 RMK AO2 SLP148 T02390222
KMEI 080658Z AUTO 22006KT 3SM BR OVC002 23/22 A2999 RMK AO2 SLP152 T02330222
KMEI 080649Z AUTO 22005KT 2SM R01/6000VP6000FT BR OVC002 23/22 A3000 RMK AO2 T02330222
KMEI 080635Z AUTO 21004KT 3SM R01/6000VP6000FT BR OVC002 23/22 A3000 RMK AO2 T02330222
KMEI 080625Z AUTO 20004KT 2 1/2SM R01/4500VP6000FT BR OVC002 23/22 A3000 RMK AO2 T02330222
KMEI 080616Z AUTO 21005KT 4SM R01/5000VP6000FT BR OVC002 23/22 A3000 RMK AO2 T02330222
KMEI 080606Z AUTO 20005KT 2SM BR OVC002 23/22 A3000 RMK AO2 T02330222
KMEI 080558Z AUTO 19006KT 3SM R01/4500VP6000FT BR OVC002 23/22 A3000 RMK AO2 SLP155 T02330222 10261 20233 403330233 50008
KMEI 080458Z AUTO 00000KT 10SM BKN003 24/22 A3001 RMK AO2 SLP157 T02390222
KMEI 080358Z AUTO 20004KT 10SM FEW003 FEW012 24/22 A3000 RMK AO2 SLP154 T02390222
KMEI 080258Z 00000KT 10SM CLR 24/23 A2998 RMK AO2 SLP147 T02390228 55007
KMEI 080158Z 00000KT 10SM CLR 25/23 A2997 RMK AO2 SLP143 T02500228
KMEI 080058Z 00000KT 10SM CLR 25/22 A2998 RMK AO2 SLP147 T02500222
KMEI 072358Z 20005KT 10SM FEW055 FEW090 SCT110 26/23 A3000 RMK AO2 RAE27 SLP154 P0000 60000 T02610233 10333 20256 53013
KMEI 072340Z 19006KT 10SM FEW055 SCT080 BKN110 26/23 A2999 RMK AO2 RAE27 P0000 T02610233
KMEI 072258Z 23006KT 10SM VCTS -RA SCT033 27/23 A2998 RMK AO2 LTG DSNT E AND SE RAB19 SLP148 P0000 T02670228
KMEI 072206Z 22012G22KT 10SM VCTS SCT033 28/23 A2995 RMK AO2 LTG DSNT E AND SW T02780233
KMEI 072158Z 22009G19KT 10SM CLR 30/24 A2995 RMK AO2 LTG DSNT SW SLP138 T03000239
KMEI 072058Z 29006KT 10SM FEW038 32/23 A2996 RMK AO2 LTG DSNT S-W SLP139 T03170233 56015
KMEI 071958Z 33007KT 10SM FEW033 33/24 A2996 RMK AO2 LTG DSNT S SLP139 T03280239
KMEI 071858Z 33008KT 10SM FEW044 33/24 A2998 RMK AO2 SLP146 T03280239
KMEI 071758Z 27007KT 230V290 10SM BKN035 31/23 A3000 RMK AO2 SLP154 T03110233 10317 20239 58007
KMEI 071658Z 26008KT 10SM FEW022 SCT060 31/24 A3001 RMK AO2 SLP157 T03110239
KMEI 071626Z 27007KT 240V300 10SM FEW018 FEW023 29/23 A3002 RMK AO2 T02940233
KMEI 071558Z 24009KT 10SM BKN015 BKN019 OVC025 28/23 A3002 RMK AO2 SLP162 T02830233
KMEI 071521Z 23007KT 10SM SCT013 BKN019 OVC025 28/24 A3002 RMK AO2 T02780239
KMEI 071458Z 23006KT 10SM BKN012 OVC017 27/24 A3002 RMK AO2 SLP162 T02720239 51006
KMEI 071448Z 21004KT 10SM BKN012 BKN017 27/24 A3002 RMK AO2 T02720239
KMEI 071358Z VRB04KT 10SM OVC005 25/23 A3002 RMK AO2 CIG 003V009 SLP160 T02500233
KMEI 071355Z 24004KT 10SM OVC005 25/23 A3002 RMK AO2 CIG 003V007
KMEI 071329Z 23003KT 4SM R01/5500VP6000FT BR OVC002 24/23 A3001 RMK AO2 T02440233
KMEI 071317Z 24004KT 2 1/2SM R01/2800VP6000FT BR OVC002 24/23 A3001 RMK AO2 T02440233
KMEI 071258Z 21004KT 1 1/2SM R01/4000VP6000FT BR OVC002 24/23 A3001 RMK AO2 SLP157 T02440233
KMEI 101120Z 1012/1112 20005KT P6SM VCSH BKN040 
     FM101600 27008KT P6SM -SHRA VCTS BKN040CB 
     FM102000 31011KT P6SM SCT050